Time;durP1;ratioP1;P1;durP2;ratioP2;P2;SDS_P1;SDS_P2;PMS_P1;PMS_P2;Temp;Humidity;BMP_temperature;BMP_pressure;BME280_temperature;BME280_humidity;BME280_pressure;Samples;Min_cycle;Max_cycle;Signal;HPM_P1;HPM_P2
2021/05/14 00:00:56;;;;;;;;;;;;;;;12.53;72.00;96005.28;1687695;84;20531;-74
2021/05/14 00:03:22;;;;;;;;;;;;;;;12.52;71.93;96007.58;1672922;84;20518;-74
2021/05/14 00:05:48;;;;;;;;;;;;;;;12.50;71.87;96010.40;1693639;85;20170;-74
2021/05/14 00:08:14;;;;;;;;;;;;;;;12.51;72.41;96010.73;1697280;85;20146;-72
2021/05/14 00:10:40;;;;;;;;;;;;;;;12.50;72.37;96010.40;1690689;85;20162;-74
2021/05/14 00:13:08;;;;;;;;;;;;;;;12.50;70.66;96009.89;1687121;84;20172;-74
2021/05/14 00:15:34;;;;;;;;;;;;;;;12.49;71.62;96001.63;1669387;85;20508;-77
2021/05/14 00:18:00;;;;;;;;;;;;;;;12.51;72.08;96006.77;1669188;86;20197;-77
2021/05/14 00:20:27;;;;;;;;;;;;;;;12.53;72.71;96003.95;1680194;85;20197;-76
2021/05/14 00:22:54;;;;;;;;;;;;;;;12.57;72.00;96007.94;1686364;85;20161;-74
2021/05/14 00:25:20;;;;;;;;;;;;;;;12.60;72.53;96000.98;1679610;85;20170;-75
2021/05/14 00:27:46;;;;;;;;;;;;;;;12.66;72.20;95999.03;1694320;85;20186;-75
2021/05/14 00:30:13;;;;;;;;;;;;;;;12.69;71.40;95998.69;1697327;85;20174;-75
2021/05/14 00:32:39;;;;;;;;;;;;;;;12.73;71.35;95994.74;1693470;84;20169;-76
2021/05/14 00:35:07;;;;;;;;;;;;;;;12.79;71.99;95998.04;1671124;85;20480;-76
2021/05/14 00:37:33;;;;;;;;;;;;;;;12.86;71.22;95994.73;1669360;85;20153;-75
2021/05/14 00:39:59;;;;;;;;;;;;;;;12.87;71.18;95993.27;1680262;85;20173;-75
2021/05/14 00:42:26;;;;;;;;;;;;;;;12.91;71.64;95995.89;1697228;85;20158;-74
2021/05/14 00:44:52;;;;;;;;;;;;;;;13.00;71.87;95991.92;1680757;85;20172;-76
2021/05/14 00:47:19;;;;;;;;;;;;;;;13.05;71.71;95995.73;1680729;85;20190;-75
2021/05/14 00:49:46;;;;;;;;;;;;;;;13.11;71.63;95991.12;1691406;84;20584;-76
2021/05/14 00:52:15;;;;;;;;;;;;;;;13.16;71.34;95991.94;1686706;85;20190;-78
2021/05/14 00:54:43;;;;;;;;;;;;;;;13.19;71.21;95994.23;1672625;85;20180;-76
2021/05/14 00:57:12;;;;;;;;;;;;;;;13.11;70.41;95992.92;1686672;85;20184;-76
2021/05/14 00:59:38;;;;;;;;;;;;;;;12.96;70.72;95991.43;1671036;85;20173;-76
2021/05/14 01:02:05;;;;;;;;;;;;;;;12.90;70.68;95994.23;1688304;84;20174;-76
2021/05/14 01:04:32;;;;;;;;;;;;;;;12.81;70.70;95996.55;1665908;85;20186;-77
2021/05/14 01:06:58;;;;;;;;;;;;;;;12.74;70.13;95996.88;1674533;85;20173;-76
2021/05/14 01:09:24;;;;;;;;;;;;;;;12.70;71.77;95999.53;1667402;85;20151;-76
2021/05/14 01:11:51;;;;;;;;;;;;;;;12.69;71.83;95996.55;1662049;86;20150;-76
2021/05/14 01:14:17;;;;;;;;;;;;;;;12.62;71.77;95999.02;1678357;85;20163;-77
2021/05/14 01:16:43;;;;;;;;;;;;;;;12.52;72.24;95997.02;1653789;85;20169;-76
2021/05/14 01:19:09;;;;;;;;;;;;;;;12.49;71.60;95990.24;1675254;85;20163;-74
2021/05/14 01:21:36;;;;;;;;;;;;;;;12.53;72.46;95994.20;1668048;86;20166;-76
2021/05/14 01:24:03;;;;;;;;;;;;;;;12.59;71.17;95990.92;1669638;85;20188;-77
2021/05/14 01:26:29;;;;;;;;;;;;;;;12.60;71.96;95995.22;1678967;85;20203;-76
2021/05/14 01:28:55;;;;;;;;;;;;;;;12.66;71.93;95996.39;1659236;85;20154;-75
2021/05/14 01:31:22;;;;;;;;;;;;;;;12.71;72.14;95998.03;1654875;85;20582;-74
2021/05/14 01:33:49;;;;;;;;;;;;;;;12.77;72.85;95993.41;1672772;85;20235;-76
2021/05/14 01:36:15;;;;;;;;;;;;;;;12.86;72.80;95994.25;1677031;85;20218;-75
2021/05/14 01:38:41;;;;;;;;;;;;;;;12.93;72.89;95995.23;1665375;85;20212;-75
2021/05/14 01:41:07;;;;;;;;;;;;;;;13.03;72.61;95999.54;1652106;85;20162;-76
2021/05/14 01:43:34;;;;;;;;;;;;;;;13.09;72.85;96000.19;1633734;85;20519;-75
2021/05/14 01:46:04;;;;;;;;;;;;;;;13.14;72.77;95997.89;1651618;87;20153;-75
2021/05/14 01:48:31;;;;;;;;;;;;;;;13.17;72.41;95995.40;1665496;85;20539;-77
2021/05/14 01:51:07;;;;;;;;;;;;;;;13.19;72.73;95992.91;1673928;85;20503;-75
2021/05/14 01:53:33;;;;;;;;;;;;;;;13.25;72.79;95991.42;1680419;85;20143;-75
2021/05/14 01:55:59;;;;;;;;;;;;;;;13.30;73.29;95993.09;1661069;85;20189;-76
2021/05/14 01:58:25;;;;;;;;;;;;;;;13.34;72.64;95989.09;1643355;86;20177;-76
2021/05/14 02:00:51;;;;;;;;;;;;;;;13.36;72.52;95988.44;1654788;86;20195;-75
2021/05/14 02:03:17;;;;;;;;;;;;;;;13.38;72.37;95985.13;1665499;85;20193;-75
2021/05/14 02:05:43;;;;;;;;;;;;;;;13.38;72.42;95989.10;1641459;86;20171;-76
2021/05/14 02:08:10;;;;;;;;;;;;;;;13.38;72.27;95985.13;1652225;86;20538;-75
2021/05/14 02:10:36;;;;;;;;;;;;;;;13.40;72.66;95988.95;1670687;85;20153;-76
2021/05/14 02:13:02;;;;;;;;;;;;;;;13.42;72.33;95986.46;1665214;86;20157;-74
2021/05/14 02:15:28;;;;;;;;;;;;;;;13.45;73.11;95987.13;1659566;86;20181;-74
2021/05/14 02:17:55;;;;;;;;;;;;;;;13.36;71.57;95987.11;1687346;85;20200;-75
2021/05/14 02:20:21;;;;;;;;;;;;;;;13.25;72.46;95993.59;1682354;85;20178;-74
2021/05/14 02:22:47;;;;;;;;;;;;;;;13.06;72.09;96000.03;1689479;85;20154;-76
2021/05/14 02:25:13;;;;;;;;;;;;;;;12.97;73.69;95999.70;1695794;85;20523;-74
2021/05/14 02:27:39;;;;;;;;;;;;;;;13.00;74.32;96006.47;1690595;85;20525;-77
2021/05/14 02:30:07;;;;;;;;;;;;;;;13.02;73.90;95997.41;1669354;85;20172;-76
2021/05/14 02:32:33;;;;;;;;;;;;;;;12.99;72.85;95998.23;1692469;85;20186;-76
2021/05/14 02:34:59;;;;;;;;;;;;;;;12.91;74.02;96007.80;1685412;85;20170;-77
2021/05/14 02:37:25;;;;;;;;;;;;;;;12.88;74.65;96006.82;1671228;85;20221;-75
2021/05/14 02:39:51;;;;;;;;;;;;;;;12.88;74.92;96003.33;1669678;85;20197;-74
2021/05/14 02:42:18;;;;;;;;;;;;;;;12.86;74.74;96001.34;1677962;85;20175;-76
2021/05/14 02:44:46;;;;;;;;;;;;;;;12.83;75.05;96010.95;1686152;85;20174;-73
2021/05/14 02:47:12;;;;;;;;;;;;;;;12.80;75.14;96009.46;1683215;85;20153;-75
2021/05/14 02:49:39;;;;;;;;;;;;;;;12.76;75.14;96006.29;1668954;85;20233;-77
2021/05/14 02:52:05;;;;;;;;;;;;;;;12.73;74.89;96013.25;1670816;84;20196;-76
2021/05/14 02:54:35;;;;;;;;;;;;;;;12.69;75.03;96017.19;1669047;86;20170;-74
2021/05/14 02:57:03;;;;;;;;;;;;;;;12.67;75.59;96015.71;1674291;85;20154;-76
2021/05/14 02:59:29;;;;;;;;;;;;;;;12.63;74.58;96012.57;1656250;85;20178;-76
2021/05/14 03:01:55;;;;;;;;;;;;;;;12.55;75.14;96009.41;1651596;86;20204;-73
2021/05/14 03:04:23;;;;;;;;;;;;;;;12.51;74.94;96006.77;1671432;85;20234;-75
2021/05/14 03:06:49;;;;;;;;;;;;;;;12.50;74.85;96006.44;1667933;85;20176;-74
2021/05/14 03:09:15;;;;;;;;;;;;;;;12.46;75.35;96009.90;1680737;85;20159;-75
2021/05/14 03:11:41;;;;;;;;;;;;;;;12.43;75.45;96006.75;1678560;85;20133;-76
2021/05/14 03:14:07;;;;;;;;;;;;;;;12.41;75.61;96010.05;1674710;85;20149;-76
2021/05/14 03:16:34;;;;;;;;;;;;;;;12.38;75.24;96012.52;1657007;85;20166;-75
2021/05/14 03:19:00;;;;;;;;;;;;;;;12.37;75.42;96014.83;1660791;85;20153;-75
2021/05/14 03:21:29;;;;;;;;;;;;;;;12.36;75.29;96022.90;1669383;85;20161;-74
2021/05/14 03:23:55;;;;;;;;;;;;;;;12.35;72.94;96026.05;1661982;85;20502;-73
2021/05/14 03:26:21;;;;;;;;;;;;;;;12.33;74.37;96028.02;1665944;85;20240;-76
2021/05/14 03:28:47;;;;;;;;;;;;;;;12.36;74.58;96035.63;1662869;85;20166;-76
2021/05/14 03:31:13;;;;;;;;;;;;;;;12.39;74.44;96037.94;1642354;87;20193;-75
2021/05/14 03:33:39;;;;;;;;;;;;;;;12.42;74.36;96027.56;1659238;85;20209;-74
2021/05/14 03:36:07;;;;;;;;;;;;;;;12.48;73.83;96034.83;1660553;86;20158;-75
2021/05/14 03:38:34;;;;;;;;;;;;;;;12.54;75.70;96032.86;1657381;86;20183;-76
2021/05/14 03:41:03;;;;;;;;;;;;;;;12.61;75.44;96046.27;1658889;86;20495;-76
2021/05/14 03:43:30;;;;;;;;;;;;;;;12.67;75.32;96039.50;1646589;85;20158;-76
2021/05/14 03:45:56;;;;;;;;;;;;;;;12.74;75.58;96045.31;1666675;85;20212;-76
2021/05/14 03:48:23;;;;;;;;;;;;;;;12.80;75.63;96043.33;1671927;85;20159;-76
2021/05/14 03:50:53;;;;;;;;;;;;;;;12.87;75.32;96042.66;1672901;84;20169;-77
2021/05/14 03:53:20;;;;;;;;;;;;;;;12.93;74.90;96039.39;1673619;85;20260;-76
2021/05/14 03:55:46;;;;;;;;;;;;;;;12.91;72.88;96041.36;1669298;85;20158;-75
2021/05/14 03:58:12;;;;;;;;;;;;;;;12.81;74.00;96046.31;1682741;85;20170;-74
2021/05/14 04:00:39;;;;;;;;;;;;;;;12.82;74.64;96048.44;1672282;84;20157;-78
2021/05/14 04:03:05;;;;;;;;;;;;;;;12.92;74.24;96044.34;1658135;85;20174;-76
2021/05/14 04:05:34;;;;;;;;;;;;;;;12.97;74.95;96045.98;1676282;85;20143;-74
2021/05/14 04:07:59;;;;;;;;;;;;;;;13.02;75.03;96048.14;1663652;86;20194;-78
2021/05/14 04:15:47;;;;;;;;;;;;;;;13.24;74.58;96054.12;1657524;86;20233;-75
2021/05/14 04:18:13;;;;;;;;;;;;;;;13.32;75.00;96053.27;1643021;87;20171;-76
2021/05/14 04:20:39;;;;;;;;;;;;;;;13.34;73.77;96046.50;1638387;87;20208;-76
2021/05/14 04:23:05;;;;;;;;;;;;;;;13.25;72.89;96049.16;1645427;87;20184;-74
2021/05/14 04:25:36;;;;;;;;;;;;;;;13.18;74.58;96053.43;1633539;86;20149;-75
2021/05/14 04:27:59;;;;;;;;;;;;;;;13.10;75.22;96058.24;1654883;87;20154;-75
2021/05/14 04:30:25;;;;;;;;;;;;;;;13.07;73.84;96057.23;1659254;87;20535;-75
2021/05/14 04:32:52;;;;;;;;;;;;;;;13.05;74.27;96057.08;1659132;86;20146;-76
2021/05/14 04:35:18;;;;;;;;;;;;;;;13.02;75.14;96054.75;1659370;86;20150;-76
2021/05/14 04:37:44;;;;;;;;;;;;;;;13.01;72.52;96059.70;1646820;86;20169;-75
2021/05/14 04:40:11;;;;;;;;;;;;;;;12.99;73.33;96062.53;1633620;87;20182;-77
2021/05/14 04:42:37;;;;;;;;;;;;;;;12.95;74.25;96063.35;1643363;87;20161;-77
2021/05/14 04:45:04;;;;;;;;;;;;;;;12.87;73.89;96063.82;1636113;87;20169;-76
2021/05/14 04:47:31;;;;;;;;;;;;;;;12.78;74.13;96061.17;1655417;87;20480;-76
2021/05/14 04:49:57;;;;;;;;;;;;;;;12.70;73.49;96065.12;1659295;86;20476;-75
2021/05/14 04:52:25;;;;;;;;;;;;;;;12.69;75.39;96069.26;1659485;87;20495;-75
2021/05/14 04:54:51;;;;;;;;;;;;;;;12.77;76.00;96068.77;1659310;86;20151;-74
2021/05/14 04:57:18;;;;;;;;;;;;;;;12.89;75.78;96076.39;1643689;86;20169;-76
2021/05/14 04:59:44;;;;;;;;;;;;;;;13.02;76.07;96069.30;1632734;88;20221;-76
2021/05/14 05:02:11;;;;;;;;;;;;;;;13.13;75.60;96072.95;1632587;88;20212;-77
2021/05/14 05:04:38;;;;;;;;;;;;;;;13.26;75.36;96073.78;1637751;87;20246;-77
2021/05/14 05:07:07;;;;;;;;;;;;;;;13.40;75.52;96083.76;1638257;87;20225;-76
2021/05/14 05:09:35;;;;;;;;;;;;;;;13.52;75.22;96080.27;1657831;86;20171;-76
2021/05/14 05:12:01;;;;;;;;;;;;;;;13.67;74.98;96082.23;1638619;86;20242;-78
2021/05/14 05:14:28;;;;;;;;;;;;;;;13.83;75.24;96082.70;1641249;86;20234;-78
2021/05/14 05:16:54;;;;;;;;;;;;;;;13.99;75.10;96087.97;1665159;85;20491;-75
2021/05/14 05:19:20;;;;;;;;;;;;;;;14.12;74.61;96086.62;1657435;85;20155;-75
2021/05/14 05:21:47;;;;;;;;;;;;;;;14.22;74.02;96083.28;1656587;86;20175;-76
2021/05/14 05:24:14;;;;;;;;;;;;;;;14.35;73.65;96085.38;1653329;85;20170;-77
2021/05/14 05:26:40;;;;;;;;;;;;;;;14.46;72.74;96078.38;1643850;86;20220;-76
2021/05/14 05:29:06;;;;;;;;;;;;;;;14.49;71.92;96086.48;1665328;86;20168;-76
2021/05/14 05:31:33;;;;;;;;;;;;;;;14.52;72.27;96082.17;1665296;86;20508;-76
2021/05/14 05:33:59;;;;;;;;;;;;;;;14.69;72.37;96082.92;1656656;85;20158;-76
2021/05/14 05:36:25;;;;;;;;;;;;;;;14.92;71.97;96086.13;1638831;86;20165;-75
2021/05/14 05:38:51;;;;;;;;;;;;;;;15.07;70.87;96088.34;1638497;86;20186;-77
2021/05/14 05:41:18;;;;;;;;;;;;;;;15.24;70.80;96091.72;1638211;88;20509;-77
2021/05/14 05:43:45;;;;;;;;;;;;;;;15.57;71.15;96090.12;1638211;88;20494;-76
2021/05/14 05:46:12;;;;;;;;;;;;;;;15.92;70.99;96094.47;1638309;87;20522;-77
2021/05/14 05:48:38;;;;;;;;;;;;;;;16.11;67.44;96093.61;1653849;85;20516;-76
2021/05/14 05:51:06;;;;;;;;;;;;;;;16.32;69.64;96099.55;1638353;88;20198;-77
2021/05/14 05:53:32;;;;;;;;;;;;;;;16.49;68.08;96090.05;1653828;87;20179;-80
2021/05/14 05:55:58;;;;;;;;;;;;;;;16.58;67.63;96090.75;1647046;86;20479;-80
2021/05/14 05:58:24;;;;;;;;;;;;;;;16.47;65.26;96094.72;1661780;86;20528;-77
2021/05/14 06:00:51;;;;;;;;;;;;;;;16.42;66.12;96095.79;1664614;86;20475;-78
2021/05/14 06:03:17;;;;;;;;;;;;;;;16.54;67.33;96095.12;1664464;86;20174;-77
2021/05/14 06:05:43;;;;;;;;;;;;;;;16.70;67.09;96095.92;1664219;86;20143;-80
2021/05/14 06:08:09;;;;;;;;;;;;;;;16.80;65.58;96094.28;1664621;86;20167;-76
2021/05/14 06:10:35;;;;;;;;;;;;;;;16.80;65.15;96098.27;1664479;86;20179;-78
2021/05/14 06:13:02;;;;;;;;;;;;;;;16.73;64.71;96097.38;1649425;86;20500;-77
2021/05/14 06:15:29;;;;;;;;;;;;;;;16.75;66.29;96098.02;1641864;86;20494;-78
2021/05/14 06:17:55;;;;;;;;;;;;;;;16.76;65.54;96102.34;1664713;86;20150;-76
2021/05/14 06:20:23;;;;;;;;;;;;;;;16.61;64.88;96101.03;1664595;86;20182;-78
2021/05/14 06:22:48;;;;;;;;;;;;;;;16.34;64.62;96106.81;1662145;85;20155;-78
2021/05/14 06:25:15;;;;;;;;;;;;;;;16.46;65.91;96099.23;1664421;86;20170;-79
2021/05/14 06:27:41;;;;;;;;;;;;;;;16.69;65.88;96103.09;1664462;86;20507;-77
2021/05/14 06:30:09;;;;;;;;;;;;;;;16.90;65.53;96100.14;1662641;86;20167;-78
2021/05/14 06:32:35;;;;;;;;;;;;;;;17.17;63.77;96106.62;1664498;86;20171;-80
2021/05/14 06:35:01;;;;;;;;;;;;;;;17.23;64.92;96107.70;1664591;86;20487;-79
2021/05/14 06:37:30;;;;;;;;;;;;;;;16.98;61.83;96110.70;1664536;86;20154;-79
2021/05/14 06:39:55;;;;;;;;;;;;;;;16.90;63.92;96113.45;1646505;85;20477;-79
2021/05/14 06:42:21;;;;;;;;;;;;;;;16.72;62.87;96105.88;1637691;88;20780;-79
2021/05/14 06:44:48;;;;;;;;;;;;;;;16.58;63.50;96115.53;1639500;86;20165;-80
2021/05/14 06:47:14;;;;;;;;;;;;;;;16.65;64.20;96116.95;1652231;86;20141;-77
2021/05/14 06:49:40;;;;;;;;;;;;;;;16.71;64.14;96121.00;1640813;86;20202;-76
2021/05/14 06:52:06;;;;;;;;;;;;;;;16.50;63.38;96119.63;1647929;86;20169;-74
2021/05/14 06:54:32;;;;;;;;;;;;;;;16.31;63.55;96125.82;1655549;85;20157;-76
2021/05/14 06:57:00;;;;;;;;;;;;;;;16.21;64.02;96129.25;1660640;84;20171;-75
2021/05/14 06:59:26;;;;;;;;;;;;;;;16.11;64.40;96126.84;1682498;85;20732;-75
2021/05/14 07:01:52;;;;;;;;;;;;;;;16.20;64.44;96127.08;1645486;86;20155;-74
2021/05/14 07:04:18;;;;;;;;;;;;;;;16.15;64.42;96130.80;1680089;85;20191;-75
2021/05/14 07:06:45;;;;;;;;;;;;;;;16.05;64.42;96130.23;1678522;85;20226;-74
2021/05/14 07:09:12;;;;;;;;;;;;;;;16.13;65.07;96128.01;1657350;86;20154;-72
2021/05/14 07:11:38;;;;;;;;;;;;;;;16.30;64.65;96133.95;1664391;86;20207;-76
2021/05/14 07:14:04;;;;;;;;;;;;;;;16.22;64.40;96126.91;1674214;86;20199;-76
2021/05/14 07:16:31;;;;;;;;;;;;;;;16.23;64.52;96137.88;1672991;86;20501;-76
2021/05/14 07:18:57;;;;;;;;;;;;;;;16.39;64.97;96143.02;1657249;85;20181;-76
2021/05/14 07:21:24;;;;;;;;;;;;;;;16.67;65.06;96144.17;1669370;85;20189;-76
2021/05/14 07:23:50;;;;;;;;;;;;;;;16.79;63.71;96137.38;1664328;86;20171;-77
2021/05/14 07:26:17;;;;;;;;;;;;;;;16.66;63.06;96142.03;1665454;86;20139;-76
2021/05/14 07:28:43;;;;;;;;;;;;;;;16.55;63.24;96146.48;1619558;88;20152;-77
2021/05/14 07:31:10;;;;;;;;;;;;;;;16.58;63.56;96146.13;1637346;86;20517;-76
2021/05/14 07:33:39;;;;;;;;;;;;;;;16.64;63.23;96155.20;1637341;88;20160;-77
2021/05/14 07:36:05;;;;;;;;;;;;;;;16.78;63.18;96149.03;1637544;86;20486;-76
2021/05/14 07:38:31;;;;;;;;;;;;;;;17.11;62.62;96149.98;1638810;86;20172;-75
2021/05/14 07:40:57;;;;;;;;;;;;;;;17.40;62.73;96153.53;1672110;86;20200;-75
2021/05/14 07:43:23;;;;;;;;;;;;;;;17.61;62.42;96154.08;1671892;86;20203;-78
2021/05/14 07:45:49;;;;;;;;;;;;;;;17.64;61.05;96152.86;1671941;86;20192;-77
2021/05/14 07:48:21;;;;;;;;;;;;;;;17.75;62.26;96156.35;1669936;86;20162;-77
2021/05/14 07:50:49;;;;;;;;;;;;;;;17.97;60.61;96156.34;1660111;86;20154;-77
2021/05/14 07:53:15;;;;;;;;;;;;;;;18.07;60.30;96152.83;1652633;86;20169;-78
2021/05/14 07:55:43;;;;;;;;;;;;;;;18.40;60.65;96154.92;1641052;86;20168;-77
2021/05/14 07:58:09;;;;;;;;;;;;;;;18.73;60.37;96157.46;1658484;86;20172;-75
2021/05/14 08:00:36;;;;;;;;;;;;;;;18.87;59.92;96165.83;1639679;86;20243;-77
2021/05/14 08:03:03;;;;;;;;;;;;;;;19.10;60.89;96163.40;1639662;86;20193;-77
2021/05/14 08:05:29;;;;;;;;;;;;;;;19.23;58.44;96164.45;1637705;86;20177;-77
2021/05/14 08:08:13;;;;;;;;;;;;;;;19.37;55.53;96169.31;1643462;86;20177;-78
2021/05/14 08:10:39;;;;;;;;;;;;;;;19.46;57.52;96170.78;1653282;85;20470;-78
2021/05/14 08:13:05;;;;;;;;;;;;;;;19.29;57.10;96172.48;1639778;86;20485;-78
2021/05/14 08:15:32;;;;;;;;;;;;;;;19.09;56.03;96169.76;1650403;86;20165;-79
2021/05/14 08:17:58;;;;;;;;;;;;;;;18.94;57.62;96180.58;1660355;86;20166;-78
2021/05/14 08:20:25;;;;;;;;;;;;;;;18.78;56.79;96187.03;1640311;86;20509;-78
2021/05/14 08:22:51;;;;;;;;;;;;;;;18.52;57.70;96203.70;1640041;86;20509;-77
2021/05/14 08:25:18;;;;;;;;;;;;;;;18.02;59.77;96208.59;1637227;88;20490;-76
2021/05/14 08:27:45;;;;;;;;;;;;;;;17.42;61.21;96218.11;1637407;87;20529;-84
2021/05/14 08:30:13;;;;;;;;;;;;;;;16.74;59.94;96219.61;1655136;86;20229;-79
2021/05/14 08:32:40;;;;;;;;;;;;;;;15.98;62.31;96219.16;1664349;86;20191;-83
2021/05/14 08:35:07;;;;;;;;;;;;;;;15.48;65.21;96224.48;1662228;86;20159;-81
2021/05/14 08:37:34;;;;;;;;;;;;;;;15.17;65.49;96221.32;1663704;86;20162;-80
2021/05/14 08:40:00;;;;;;;;;;;;;;;15.06;64.98;96227.85;1664295;86;20139;-81
2021/05/14 08:42:27;;;;;;;;;;;;;;;15.00;64.89;96228.04;1646703;86;20173;-81
2021/05/14 08:44:54;;;;;;;;;;;;;;;15.01;65.96;96231.02;1640280;86;20177;-81
2021/05/14 08:47:21;;;;;;;;;;;;;;;14.96;67.42;96231.54;1664291;86;20522;-83
2021/05/14 08:49:48;;;;;;;;;;;;;;;14.96;64.93;96239.50;1630799;86;20545;-82
2021/05/14 08:52:16;;;;;;;;;;;;;;;14.89;65.44;96246.98;1617345;89;20546;-81
2021/05/14 08:54:45;;;;;;;;;;;;;;;14.86;65.99;96244.66;1617331;89;20505;-81
2021/05/14 08:57:11;;;;;;;;;;;;;;;14.83;64.64;96255.12;1617191;89;20181;-83
2021/05/14 08:59:38;;;;;;;;;;;;;;;14.77;66.29;96251.83;1617316;89;20549;-80
2021/05/14 09:02:05;;;;;;;;;;;;;;;14.88;64.50;96258.11;1633424;87;20523;-82
2021/05/14 09:04:33;;;;;;;;;;;;;;;14.98;65.55;96257.41;1663046;85;20155;-83
2021/05/14 09:07:00;;;;;;;;;;;;;;;15.03;65.60;96259.55;1677668;84;20189;-86
2021/05/14 09:09:27;;;;;;;;;;;;;;;15.11;67.05;96258.67;1669135;86;20197;-84
2021/05/14 09:11:53;;;;;;;;;;;;;;;15.10;64.65;96264.97;1669918;85;20498;-82
2021/05/14 09:14:41;;;;;;;;;;;;;;;14.93;64.67;96266.37;1669103;86;20161;-87
2021/05/14 09:17:14;;;;;;;;;;;;;;;14.89;65.27;96263.74;1677206;85;20174;-83
2021/05/14 09:19:44;;;;;;;;;;;;;;;15.00;68.54;96262.53;1697182;85;20163;-88
2021/05/14 09:22:24;;;;;;;;;;;;;;;15.15;68.02;96261.32;1693682;85;20190;-85
2021/05/14 09:24:58;;;;;;;;;;;;;;;15.25;67.81;96265.08;1646184;85;20506;-87
2021/05/14 09:27:31;;;;;;;;;;;;;;;15.38;66.17;96267.17;1669160;86;20477;-82
2021/05/14 09:29:58;;;;;;;;;;;;;;;15.48;66.24;96270.44;1662633;86;20190;-82
2021/05/14 09:32:30;;;;;;;;;;;;;;;15.59;64.91;96274.55;1695164;84;20486;-84
2021/05/14 09:34:58;;;;;;;;;;;;;;;15.52;65.61;96280.21;1667345;86;20168;-84
2021/05/14 09:37:25;;;;;;;;;;;;;;;15.48;66.79;96282.91;1685198;84;20176;-84
2021/05/14 09:40:14;;;;;;;;;;;;;;;15.43;65.22;96284.23;1696869;85;20233;-80
2021/05/14 09:42:41;;;;;;;;;;;;;;;15.13;66.85;96279.23;1673009;85;20541;-81
2021/05/14 09:45:18;;;;;;;;;;;;;;;14.99;66.52;96282.92;1692454;85;20529;-81
2021/05/14 09:48:00;;;;;;;;;;;;;;;14.97;69.20;96284.94;1692750;82;20577;-79
2021/05/14 09:50:29;;;;;;;;;;;;;;;15.10;72.20;96281.73;1692671;83;20171;-84
2021/05/14 09:53:07;;;;;;;;;;;;;;;15.35;69.19;96284.80;1693424;83;20226;-80
2021/05/14 09:55:35;;;;;;;;;;;;;;;15.60;68.48;96288.97;1687194;85;20185;-79
2021/05/14 09:58:14;;;;;;;;;;;;;;;15.71;67.31;96289.06;1680144;85;20205;-82
2021/05/14 10:00:41;;;;;;;;;;;;;;;15.95;66.61;96279.81;1688762;85;20138;-82
2021/05/14 10:03:09;;;;;;;;;;;;;;;16.27;65.95;96277.41;1685958;85;20227;-80
2021/05/14 10:05:37;;;;;;;;;;;;;;;16.55;64.58;96268.36;1673734;84;20200;-78
2021/05/14 10:08:06;;;;;;;;;;;;;;;16.78;64.05;96274.10;1684769;85;20166;-82
2021/05/14 10:10:35;;;;;;;;;;;;;;;16.97;63.46;96270.11;1675573;85;20165;-80
2021/05/14 10:13:01;;;;;;;;;;;;;;;17.09;60.81;96275.80;1679726;85;20483;-79
2021/05/14 10:15:28;;;;;;;;;;;;;;;17.00;60.86;96275.56;1687361;85;20516;-80
2021/05/14 10:17:55;;;;;;;;;;;;;;;16.99;58.97;96273.39;1694483;85;20154;-80
2021/05/14 10:20:28;;;;;;;;;;;;;;;16.91;60.19;96250.02;1676934;85;20168;-81
2021/05/14 10:22:55;;;;;;;;;;;;;;;17.21;59.14;96281.47;1676031;85;20492;-82
2021/05/14 10:25:46;;;;;;;;;;;;;;;17.16;58.71;96281.22;1677608;85;20148;-82
2021/05/14 10:28:15;;;;;;;;;;;;;;;17.16;58.13;96280.70;1685445;85;20184;-81
2021/05/14 10:31:06;;;;;;;;;;;;;;;17.11;57.11;96287.09;1667984;86;20218;-83
2021/05/14 10:33:43;;;;;;;;;;;;;;;17.24;58.49;96282.94;1670008;85;20188;-81
2021/05/14 10:36:22;;;;;;;;;;;;;;;17.43;58.92;96286.88;1667331;86;20173;-83
2021/05/14 10:39:08;;;;;;;;;;;;;;;17.67;58.71;96284.39;1665677;85;20164;-83
2021/05/14 10:41:49;;;;;;;;;;;;;;;17.89;58.62;96291.91;1667004;86;20185;-81
2021/05/14 10:44:15;;;;;;;;;;;;;;;18.26;58.29;96286.03;1649068;85;20170;-80
2021/05/14 10:46:42;;;;;;;;;;;;;;;18.58;58.81;96291.01;1666572;86;20192;-83
2021/05/14 10:49:11;;;;;;;;;;;;;;;18.80;57.47;96292.27;1666365;86;20140;-82
2021/05/14 10:51:50;;;;;;;;;;;;;;;19.01;56.70;96293.58;1683633;85;20537;-82
2021/05/14 10:54:42;;;;;;;;;;;;;;;18.96;55.34;96297.86;1695140;85;20471;-81
2021/05/14 10:57:12;;;;;;;;;;;;;;;18.73;51.51;96299.73;1695095;85;20162;-82
2021/05/14 10:59:39;;;;;;;;;;;;;;;18.43;53.33;96292.42;1690449;85;20203;-82
2021/05/14 11:02:30;;;;;;;;;;;;;;;18.41;54.72;96305.97;1671825;85;20172;-83
2021/05/14 11:04:58;;;;;;;;;;;;;;;18.54;55.03;96299.07;1668021;85;20187;-82
2021/05/14 11:07:36;;;;;;;;;;;;;;;18.71;52.10;96302.29;1670932;85;20180;-84
2021/05/14 11:10:15;;;;;;;;;;;;;;;18.88;52.81;96302.30;1667548;85;20500;-84
2021/05/14 11:12:44;;;;;;;;;;;;;;;19.14;50.99;96298.17;1655222;86;20232;-81
2021/05/14 11:15:23;;;;;;;;;;;;;;;19.18;50.28;96291.43;1666199;86;20172;-81
2021/05/14 11:18:17;;;;;;;;;;;;;;;19.31;50.10;96291.16;1667079;86;20170;-84
2021/05/14 11:20:45;;;;;;;;;;;;;;;19.39;50.89;96287.50;1678166;85;20586;-84
2021/05/14 11:23:31;;;;;;;;;;;;;;;19.55;48.55;96283.67;1666999;86;20176;-84
2021/05/14 11:25:57;;;;;;;;;;;;;;;19.76;47.07;96280.87;1670482;86;20169;-85
2021/05/14 11:28:46;;;;;;;;;;;;;;;19.92;46.01;96275.67;1667249;86;20169;-84
2021/05/14 11:31:16;;;;;;;;;;;;;;;19.72;45.72;96280.14;1667330;86;20501;-85
2021/05/14 11:33:48;;;;;;;;;;;;;;;19.60;48.71;96282.05;1664966;85;20499;-85
2021/05/14 11:36:14;;;;;;;;;;;;;;;19.75;49.22;96275.70;1658338;85;20504;-83
2021/05/14 11:38:52;;;;;;;;;;;;;;;19.77;48.88;96275.81;1669145;85;20181;-84
2021/05/14 11:41:29;;;;;;;;;;;;;;;19.62;44.81;96267.14;1677904;85;20482;-87
2021/05/14 11:44:04;;;;;;;;;;;;;;;19.53;46.51;96276.36;1695479;85;20507;-85
2021/05/14 11:46:32;;;;;;;;;;;;;;;19.28;47.42;96280.89;1695305;85;20264;-85
2021/05/14 11:49:08;;;;;;;;;;;;;;;19.14;47.48;96275.47;1687682;84;20205;-84
2021/05/14 11:51:35;;;;;;;;;;;;;;;19.08;47.97;96274.94;1683862;85;20172;-83
2021/05/14 11:54:10;;;;;;;;;;;;;;;18.86;46.46;96283.50;1666985;86;20148;-83
2021/05/14 11:56:36;;;;;;;;;;;;;;;18.65;48.01;96282.53;1668398;85;20148;-84
2021/05/14 11:59:02;;;;;;;;;;;;;;;18.65;48.75;96289.20;1674620;85;20174;-83
2021/05/14 12:01:39;;;;;;;;;;;;;;;18.73;49.52;96289.06;1694979;85;20154;-84
2021/05/14 12:04:05;;;;;;;;;;;;;;;18.86;47.96;96300.33;1692581;85;20173;-83
2021/05/14 12:06:31;;;;;;;;;;;;;;;18.99;48.62;96302.81;1666169;86;20244;-84
2021/05/14 12:08:57;;;;;;;;;;;;;;;19.09;46.77;96295.28;1658513;85;20538;-80
2021/05/14 12:11:23;;;;;;;;;;;;;;;19.19;46.13;96294.41;1686340;85;20513;-82
2021/05/14 12:13:49;;;;;;;;;;;;;;;19.24;48.24;96296.49;1668427;85;20212;-84
2021/05/14 12:16:18;;;;;;;;;;;;;;;19.18;47.15;96291.92;1666641;85;20187;-86
2021/05/14 12:18:49;;;;;;;;;;;;;;;19.18;47.60;96290.59;1665909;86;20191;-81
2021/05/14 12:21:27;;;;;;;;;;;;;;;19.38;47.23;96294.71;1667211;86;20169;-84
2021/05/14 12:23:54;;;;;;;;;;;;;;;19.62;47.93;96293.87;1667649;85;20235;-85
2021/05/14 12:26:21;;;;;;;;;;;;;;;19.89;48.64;96298.83;1664419;85;20172;-83
2021/05/14 12:28:49;;;;;;;;;;;;;;;20.18;48.27;96298.17;1670440;85;20153;-82
2021/05/14 12:31:27;;;;;;;;;;;;;;;20.42;46.55;96300.73;1666778;85;20145;-84
2021/05/14 12:33:59;;;;;;;;;;;;;;;20.68;45.27;96303.63;1667221;85;20183;-80
2021/05/14 12:36:33;;;;;;;;;;;;;;;20.88;42.22;96301.80;1667019;85;20216;-83
2021/05/14 12:39:05;;;;;;;;;;;;;;;21.08;43.54;96304.96;1667177;86;20160;-81
2021/05/14 12:42:00;;;;;;;;;;;;;;;21.28;42.29;96295.52;1668760;85;20212;-82
2021/05/14 12:44:33;;;;;;;;;;;;;;;21.21;43.30;96295.53;1666706;86;20229;-81
2021/05/14 12:47:12;;;;;;;;;;;;;;;21.18;43.77;96303.17;1669025;85;20617;-84
2021/05/14 12:50:00;;;;;;;;;;;;;;;21.32;40.87;96294.58;1670692;86;20772;-81
2021/05/14 12:52:35;;;;;;;;;;;;;;;21.42;42.81;96299.52;1667194;85;20233;-80
2021/05/14 12:55:06;;;;;;;;;;;;;;;21.50;42.58;96305.44;1666659;86;20224;-81
2021/05/14 12:57:43;;;;;;;;;;;;;;;21.51;41.83;96302.27;1666486;86;20236;-81
2021/05/14 13:00:22;;;;;;;;;;;;;;;21.36;40.89;96299.84;1639823;88;20170;-83